Terminal Aerodrome Forecast
Issued by NWS

Home | Current Version | Previous Version | Text Only | Print | Product List | Glossary On
Versions: 1 2 3 4 5 6 7 8 9 10 11 12 13 14 15
000
FTUS42 KFFC 051127
TAFFTY
TAF
KFTY 051127Z 0512/0612 22004KT P6SM SCT100 SCT250
     FM051500 24006KT P6SM SCT050 SCT250 PROB30 0521/0601 6SM TSRA
      BKN050CB
     FM060100 00000KT P6SM SCT060 BKN180=

USA.gov is the U.S. government's official web portal to all federal, state and local government web resources and services.